This is the latest recevied weather packets stored in our database for station/object KQ4HEI. If no packets are shown the sender has not sent any weather packets the latest 10 day(s).
| Time | Temp. | Humidity | Pressure | Rain* | Wind** | Luminosity | Snow |
|---|---|---|---|---|---|---|---|
| 1788071492 | 22.22° C | 99% | 1015.9 hPa | 0 mm | - | - | - |
| 1788070893 | 22.22° C | 99% | 1015.9 hPa | 0 mm | - | - | - |
| 1788070293 | 22.22° C | 99% | 1016 hPa | 0 mm | - | - | - |
| 1788069691 | 22.22° C | 99% | 1016 hPa | 0 mm | - | - | - |
| 1788069093 | 22.78° C | 99% | 1016 hPa | 0 mm | - | - | - |
| 1788068491 | 22.78° C | 99% | 1016.4 hPa | 0 mm | - | - | - |
| 1788067893 | 22.78° C | 99% | 1016.7 hPa | 0 mm | - | - | - |
| 1788067292 | 22.78° C | 99% | 1016.7 hPa | 0 mm | - | - | - |
| 1788066691 | 22.78° C | 99% | 1017 hPa | 0 mm | - | - | - |
| 1788066092 | 22.78° C | 99% | 1017.1 hPa | 0 mm | - | - | - |
| 1788065491 | 23.33° C | 99% | 1017.2 hPa | 0 mm | - | - | - |
| 1788064892 | 23.33° C | 99% | 1017.4 hPa | 0 mm | - | - | - |
| 1788064291 | 23.33° C | 99% | 1017.6 hPa | 0 mm | - | - | - |
| 1788063691 | 23.33° C | 99% | 1017.7 hPa | 0 mm | - | - | - |
| 1788063091 | 23.33° C | 99% | 1017.7 hPa | 0 mm | - | - | - |
| 1788060691 | 23.89° C | 99% | 1017.6 hPa | 0 mm | - | - | - |
| 1788060093 | 23.89° C | 99% | 1017.5 hPa | 0 mm | - | - | - |
| 1788040929 | 28.89° C | 82% | 1015.8 hPa | 0 mm | - | - | - |
| 1788039693 | 28.33° C | 83% | 1016.1 hPa | 0 mm | - | - | - |
| 1788039092 | 28.33° C | 82% | 1016.1 hPa | 0 mm | - | - | - |
| 1788035492 | 28.33° C | 83% | 1016.3 hPa | 0 mm | - | - | - |
| 1788034892 | 28.33° C | 82% | 1016.4 hPa | 0 mm | - | - | - |
| 1788033092 | 28.33° C | 81% | 1016.3 hPa | 0 mm | - | - | - |
| 1788031892 | 28.89° C | 81% | 1016.5 hPa | 0 mm | - | - | - |
| 1788031292 | 29.44° C | 80% | 1016.7 hPa | 0 mm | - | - | - |
* Rain latest hour (hover to see other rain measurements)
** Current wind speed in m/s (hover to see current wind gust speed)